Albenga, Italy

6:41 PM CEST on October 22, 2014 (GMT +0200)
Andora - colla micheri | Change Station
CLOSE
Current Station
Personal Weather Station
Location: Andora,
Elevation: 577 ft
Nearby Weather Stations
Active Advisory: Wind

Elev 577 ft 43.97 °N, 8.15 °E | Updated 7 minutes ago

Clear
Clear
62.1 °F
Feels Like 62.1 °F
N
9.0
Wind Variable Wind from NNE
Gusts 9.0 mph

Today
High -- | Low -- °F
--% Chance of Precip.
Yesterday
High -- | Low -- °F
Precip. -- in
7:50 AM 6:32 PM
Waning Crescent, 2% visible
Pressure 29.92 in
Visibility -9999.0 miles
Clouds
Dew Point 15 °F
Humidity 16%
Rainfall 0.00 in
Snow Depth Not available.
UV Not available.
Pollen Not available.
Air Quality Not available.
Flu Activity Not available.
METAR LIMU 221555Z 35023G38KT CAVOK 17/M15 Q1013 RMK SKC QUK 4 QUL 1 E VIS MAR 30 KM VIS MIN 9999

More Conditions Fewer Conditions

Pressure 29.92 in
Visibility -9999.0 miles
Clouds
Dew Point 15 °F
Humidity 16%
Rainfall 0.00 in
Snow Depth Not available.
UV Not available.
Pollen Not available.
Air Quality Not available.
Flu Activity Not available.
METAR LIMU 221555Z 35023G38KT CAVOK 17/M15 Q1013 RMK SKC QUK 4 QUL 1 E VIS MAR 30 KM VIS MIN 9999

More Conditions Fewer Conditions

10-Day Weather Forecast

Almanac

Astronomy

Oct. 22, 2014 Rise Set
Actual Time 7:50 AM CEST 6:32 PM CEST
Civil Twilight 7:21 AM CEST 7:02 PM CEST
Nautical Twilight 6:47 AM CEST 7:35 PM CEST
Astronomical Twilight 6:14 AM CEST 8:09 PM CEST
Moon 6:13 AM CEST 5:52 PM CEST
Length of Visible Light 11h 40m
Length of Day
10h 41m
Tomorrow will be 2m 52s shorter.
Waning Crescent, 2% of the Moon is Illuminated
Today
Waning Crescent
Oct 23
New
Oct 30
First Quarter
Nov 6
Full
Nov 14
Last Quarter

Today's Extremes

Country Highs Country Lows

Community

WunderPhotos

Upload Photos

1,763,963 photos uploaded!

Nearby

Snow Depth

Not available.

Earthquake Activity

City Distance Mag. Time & Date
No recent earthquake activity has been reported nearby.
Minimum magnitude displayed is 2.5.

Coastal Water Temperatures

Place Temperature
No Stations Reporting

Nearby Weather Stations